Flight Track Log - Related Links

Times and Time Zones

All times are in EDT time to prevent confusion due to time zone crossing. See the GJS3706 flight status page for this flight to view local times or setup timezone preferences in your user account.

Time Position Orientation Groundspeed Altitude Reporting Facility
EDT Latitude Longitude Course Direction KTS MPH feet Rate Location/Type
Fri 11:31:48 AM 42.7278 -73.8081 270° West 161 185 1,000  Level Boston Center
Fri 11:32:36 AM 42.6900 -73.8158 189° South 186 214 2,200 1,862 Climbing Boston Center
Fri 11:34:13 AM 42.7344 -73.9269 299° West 260 299 5,500 2,255 Climbing Boston Center
Fri 11:35:00 AM 43.0141 -74.1264 279° West  Level FlightAware Approximate
Fri 11:35:13 AM 42.7814 -74.0072 309° West 266 306 8,100  Level Boston Center
Fri 11:36:00 AM 43.0248 -74.2633 276° West  Level FlightAware Approximate
Fri 11:36:13 AM 42.8322 -74.0906 310° West 277 319 10,500  Level Boston Center
Fri 11:37:00 AM 43.0333 -74.4005 270° West  Level FlightAware Approximate
Fri 11:37:13 AM 42.8911 -74.2000 306° West 324 373 12,200  Level Boston Center
Fri 11:38:13 AM 42.9458 -74.3008 307° West 358 412 13,600 1,600 Climbing Boston Center
Fri 11:39:13 AM 43.0147 -74.4250 307° West 375 432 15,400 1,700 Climbing Boston Center
Fri 11:40:13 AM 43.0353 -74.5506 283° West 373 429 17,000 1,800 Climbing Boston Center
Fri 11:41:13 AM 43.0492 -74.6933 278° West 380 437 19,000 1,800 Climbing Boston Center
Fri 11:42:13 AM 43.0608 -74.8386 276° West 390 449 20,600 1,550 Climbing Boston Center
Fri 11:43:13 AM 43.0722 -74.9897 276° West 390 449 22,100 1,250 Climbing Boston Center
Fri 11:44:13 AM 43.0819 -75.1067 277° West 390 449 23,100 1,100 Climbing Boston Center
Fri 11:45:13 AM 43.0942 -75.2950 275° West 400 460 24,300 1,100 Climbing Boston Center
Fri 11:46:13 AM 43.1083 -75.4692 276° West 416 479 25,300 1,000 Climbing Boston Center
Fri 11:47:13 AM 43.1206 -75.6347 276° West 429 494 26,300 1,000 Climbing Boston Center
Fri 11:48:13 AM 43.1325 -75.8003 276° West 434 499 27,300 1,040 Climbing Boston Center
Fri 11:50:06 AM 43.1333 -76.0833 270° West 440 506 29,300 1,075 Climbing Toronto Center
Fri 11:51:06 AM 43.1500 -76.2500 278° West 440 506 30,400 1,000 Climbing Toronto Center
Fri 11:52:06 AM 43.1500 -76.4333 270° West 450 518 31,300 1,000 Climbing Toronto Center
Fri 11:53:06 AM 43.1500 -76.6000 270° West 440 506 32,400 1,050 Climbing Toronto Center
Fri 11:54:06 AM 43.1500 -76.7500 270° West 440 506 33,400 850 Climbing Toronto Center
Fri 11:55:06 AM 43.1500 -76.9167 270° West 440 506 34,100 700 Climbing Toronto Center
Fri 11:56:06 AM 43.1500 -77.1000 270° West 440 506 34,800 700 Climbing Toronto Center
Fri 11:57:06 AM 43.1333 -77.2500 261° West 450 518 35,500 700 Climbing Toronto Center
Fri 11:58:06 AM 43.1500 -77.4333 277° West 450 518 36,200 700 Climbing Toronto Center
Fri 11:59:06 AM 43.1500 -77.6000 270° West 450 518 36,900 700 Climbing Toronto Center
Fri 12:00:06 PM 43.1333 -77.7833 263° West 440 506 37,600 550 Climbing Toronto Center
Fri 12:01:06 PM 43.1333 -77.9500 270° West 440 506 38,000 200 Climbing Toronto Center
Fri 12:02:06 PM 43.1333 -78.1000 270° West 440 506 38,000  Level Toronto Center
Fri 12:03:06 PM 43.1333 -78.2833 270° West 440 506 38,000  Level Toronto Center
Fri 12:04:06 PM 43.1167 -78.4500 262° West 440 506 38,000  Level Toronto Center
Fri 12:05:06 PM 43.1333 -78.6333 277° West 450 518 38,000  Level Toronto Center
Fri 12:06:06 PM 43.1167 -78.7833 261° West 450 518 38,000  Level Toronto Center
Fri 12:07:06 PM 43.1167 -78.9667 270° West 450 518 38,000  Level Toronto Center
Fri 12:08:06 PM 43.1167 -79.1333 270° West 450 518 38,000  Level Toronto Center
Fri 12:09:06 PM 43.1167 -79.2833 270° West 460 529 38,000  Level Toronto Center
Fri 12:10:06 PM 43.1000 -79.4667 263° West 460 529 38,000  Level Toronto Center
Fri 12:11:06 PM 43.1000 -79.6500 270° West 460 529 38,000  Level Toronto Center
Fri 12:12:06 PM 43.1000 -79.8167 270° West 460 529 38,000  Level Toronto Center
Fri 12:13:06 PM 43.1000 -80.0000 270° West 460 529 38,000  Level Toronto Center
Fri 12:14:06 PM 43.1000 -80.1833 270° West 470 541 38,000  Level Toronto Center
Fri 12:15:06 PM 43.0833 -80.3667 263° West 460 529 38,000  Level Toronto Center
Fri 12:16:06 PM 43.0833 -80.5167 270° West 470 541 38,000  Level Toronto Center
Fri 12:17:06 PM 43.0833 -80.7000 270° West 460 529 38,000  Level Toronto Center
Fri 12:18:06 PM 43.0667 -80.8833 263° West 460 529 38,000  Level Toronto Center
Fri 12:19:06 PM 43.0667 -81.0500 270° West 460 529 38,000  Level Toronto Center
Fri 12:20:06 PM 43.0500 -81.2333 263° West 460 529 38,000  Level Toronto Center
Fri 12:21:06 PM 43.0500 -81.4167 270° West 460 529 38,000  Level Toronto Center
Fri 12:22:06 PM 43.0500 -81.6000 270° West 460 529 38,000  Level Toronto Center
Fri 12:23:06 PM 43.0500 -81.7500 270° West 460 529 38,000  Level Toronto Center
Fri 12:24:06 PM 43.0333 -81.9333 263° West 460 529 38,000  Level Toronto Center
Fri 12:25:06 PM 43.0333 -82.1167 270° West 460 529 38,000  Level Toronto Center
Fri 12:26:06 PM 43.0167 -82.3000 263° West 460 529 38,000  Level Toronto Center
Fri 12:27:06 PM 43.0167 -82.4667 270° West 460 529 38,000 -150 Level Toronto Center
Fri 12:28:06 PM 43.0000 -82.6500 263° West 460 529 37,700 -367 Descending Toronto Center
Fri 12:28:44 PM 43.0128 -82.7667 279° West 469 540 37,400 -490 Descending Cleveland Center
Fri 12:29:44 PM 43.0050 -82.9425 267° West 469 540 36,900 -600 Descending Cleveland Center
Fri 12:30:44 PM 42.9972 -83.1097 266° West 459 528 36,200 -700 Descending Cleveland Center
Fri 12:31:44 PM 42.9892 -83.2853 266° West 459 528 35,500 -700 Descending Cleveland Center
Fri 12:32:44 PM 42.9828 -83.4639 267° West 464 534 34,800 -700 Descending Cleveland Center
Fri 12:33:44 PM 42.9719 -83.6422 265° West 470 541 34,100 -700 Descending Cleveland Center
Fri 12:34:44 PM 42.9586 -83.8203 264° West 475 547 33,400 -700 Descending Cleveland Center
Fri 12:35:44 PM 42.9411 -84.0008 263° West 480 552 32,700 -703 Descending Cleveland Center
Fri 12:36:35 PM 42.9267 -84.1550 263° West 490 564 32,100 -372 Descending Chicago Center
Fri 12:37:37 PM 42.9094 -84.3381 263° West 488 562 32,000 -48 Descending Chicago Center
Fri 12:38:40 PM 42.8908 -84.5172 262° West 480 552 32,000  Level Chicago Center
Fri 12:39:42 PM 42.8714 -84.6969 262° West 480 552 32,000  Level Chicago Center
Fri 12:40:44 PM 42.8531 -84.8764 262° West 480 552 32,000  Level Chicago Center
Fri 12:41:46 PM 42.8344 -85.0553 262° West 479 551 32,000  Level Chicago Center
Fri 12:42:48 PM 42.8117 -85.2692 262° West 477 549 32,000 -629 Level Chicago Center
Fri 12:43:50 PM 42.7919 -85.4464 261° West 473 544 30,700 -1,790 Descending Chicago Center
Fri 12:44:52 PM 42.7647 -85.6153 258° West 460 529 28,300 -2,226 Descending Chicago Center
Fri 12:45:54 PM 42.7372 -85.7717 257° West 430 495 26,100 -2,081 Descending Chicago Center
Fri 12:46:56 PM 42.7094 -85.9231 256° West 414 476 24,000 -1,984 Descending Chicago Center
Fri 12:47:58 PM 42.6825 -86.0706 256° West 404 465 22,000 -1,694 Descending Chicago Center
Fri 12:49:00 PM 42.6583 -86.2053 256° West 379 436 20,500 -1,742 Descending Chicago Center
Fri 12:50:02 PM 42.6292 -86.3497 255° West 335 386 18,400 -1,920 Descending Chicago Center
Fri 12:51:05 PM 42.6086 -86.4644 256° West 315 362 16,500 -1,728 Descending Chicago Center
Fri 12:52:07 PM 42.5869 -86.5778 255° West 310 357 14,800 -1,548 Descending Chicago Center
Fri 12:53:09 PM 42.5661 -86.6892 256° West 307 353 13,300 -1,452 Descending Chicago Center
Fri 12:54:11 PM 42.5356 -86.8147 252° West 340 391 11,800 -1,452 Descending Chicago Center
Fri 12:55:13 PM 42.5039 -86.9375 251° West 345 397 10,300 -871 Descending Chicago Center
Fri 12:56:15 PM 42.4725 -87.0483 249° West 304 350 10,000 -629 Descending Chicago Center
Fri 12:57:17 PM 42.4397 -87.1664 249° West 282 325 9,000 -484 Descending Chicago Center
Fri 12:58:19 PM 42.4119 -87.2644 249° West 280 322 9,000  Level Chicago Center
Fri 12:59:21 PM 42.3536 -87.3200 215° Southwest 297 342 9,000 -288 Level Chicago Center
Fri 01:00:24 PM 42.2569 -87.3075 175° South 305 351 8,400 -816 Descending Chicago Center
Fri 01:01:26 PM 42.1742 -87.2969 175° South 301 346 7,300 -672 Descending Chicago Center
Fri 01:02:29 PM 42.0942 -87.3047 184° South 293 337 7,000 -384 Descending Chicago Center
Fri 01:03:31 PM 42.0342 -87.3625 216° Southwest 280 322 6,500 -484 Descending Chicago Center
Fri 01:04:33 PM 41.9878 -87.4403 231° Southwest 267 307 6,000 -387 Descending Chicago Center
Fri 01:05:35 PM 41.9811 -87.5508 265° West 250 288 5,700 -774 Descending Chicago Center
Fri 01:06:37 PM 41.9844 -87.6333 273° West 229 264 4,400 -1,161 Descending Chicago Center
Fri 01:07:39 PM 41.9850 -87.7106 271° West 220 253 3,300 -1,065 Descending Chicago Center

Login

Don't have an account? Register now (free) for customized features, flight alerts, and more!